sensor_id;sensor_type;location;lat;lon;timestamp;P1;durP1;ratioP1;P2;durP2;ratioP2
22711;SDS011;11523;50.390;8.072;2023-06-10T03:51:24;11.18;;;10.10;;
22711;SDS011;11523;50.390;8.072;2023-06-10T03:53:56;12.68;;;11.00;;
22711;SDS011;11523;50.390;8.072;2023-06-10T03:56:22;11.85;;;10.75;;
22711;SDS011;11523;50.390;8.072;2023-06-10T03:58:48;12.27;;;11.15;;
22711;SDS011;11523;50.390;8.072;2023-06-10T04:01:14;12.40;;;10.80;;
22711;SDS011;11523;50.390;8.072;2023-06-10T04:03:42;12.00;;;10.68;;
22711;SDS011;11523;50.390;8.072;2023-06-10T04:06:08;12.90;;;11.20;;
22711;SDS011;11523;50.390;8.072;2023-06-10T04:08:34;12.32;;;10.60;;
22711;SDS011;11523;50.390;8.072;2023-06-10T04:11:01;12.45;;;11.23;;
22711;SDS011;11523;50.390;8.072;2023-06-10T04:13:27;14.98;;;11.98;;
22711;SDS011;11523;50.390;8.072;2023-06-10T04:15:53;14.52;;;11.27;;
22711;SDS011;11523;50.390;8.072;2023-06-10T04:18:22;12.20;;;10.93;;
22711;SDS011;11523;50.390;8.072;2023-06-10T04:20:48;15.15;;;11.27;;
22711;SDS011;11523;50.390;8.072;2023-06-10T04:23:14;14.05;;;11.20;;
22711;SDS011;11523;50.390;8.072;2023-06-10T04:25:40;12.13;;;11.02;;
22711;SDS011;11523;50.390;8.072;2023-06-10T04:28:05;12.20;;;11.00;;
22711;SDS011;11523;50.390;8.072;2023-06-10T04:30:31;12.57;;;11.27;;
22711;SDS011;11523;50.390;8.072;2023-06-10T04:32:58;13.98;;;11.80;;
22711;SDS011;11523;50.390;8.072;2023-06-10T04:35:24;12.30;;;11.13;;
22711;SDS011;11523;50.390;8.072;2023-06-10T04:37:52;12.90;;;11.63;;
22711;SDS011;11523;50.390;8.072;2023-06-10T04:40:18;13.20;;;11.85;;
22711;SDS011;11523;50.390;8.072;2023-06-10T04:42:44;13.30;;;11.52;;
22711;SDS011;11523;50.390;8.072;2023-06-10T04:45:10;12.70;;;11.50;;
22711;SDS011;11523;50.390;8.072;2023-06-10T04:47:36;12.75;;;11.55;;
22711;SDS011;11523;50.390;8.072;2023-06-10T04:50:02;14.00;;;11.20;;
22711;SDS011;11523;50.390;8.072;2023-06-10T04:52:29;13.25;;;11.98;;
22711;SDS011;11523;50.390;8.072;2023-06-10T04:54:55;13.23;;;12.00;;
22711;SDS011;11523;50.390;8.072;2023-06-10T04:57:23;12.70;;;11.55;;
22711;SDS011;11523;50.390;8.072;2023-06-10T04:59:49;12.75;;;11.45;;
22711;SDS011;11523;50.390;8.072;2023-06-10T05:02:15;14.38;;;11.50;;
22711;SDS011;11523;50.390;8.072;2023-06-10T05:04:41;13.10;;;11.55;;
22711;SDS011;11523;50.390;8.072;2023-06-10T05:07:07;15.32;;;12.00;;
22711;SDS011;11523;50.390;8.072;2023-06-10T05:09:33;13.52;;;11.88;;
22711;SDS011;11523;50.390;8.072;2023-06-10T05:11:59;15.80;;;12.52;;
22711;SDS011;11523;50.390;8.072;2023-06-10T05:14:24;13.25;;;11.88;;
22711;SDS011;11523;50.390;8.072;2023-06-10T05:16:50;14.23;;;12.63;;
22711;SDS011;11523;50.390;8.072;2023-06-10T05:19:16;14.77;;;12.93;;
22711;SDS011;11523;50.390;8.072;2023-06-10T05:21:44;16.15;;;12.35;;
22711;SDS011;11523;50.390;8.072;2023-06-10T05:24:09;13.93;;;11.73;;
22711;SDS011;11523;50.390;8.072;2023-06-10T05:26:35;14.35;;;12.68;;
22711;SDS011;11523;50.390;8.072;2023-06-10T05:29:03;17.88;;;12.23;;
22711;SDS011;11523;50.390;8.072;2023-06-10T05:31:29;14.15;;;12.20;;
22711;SDS011;11523;50.390;8.072;2023-06-10T05:33:55;12.50;;;11.25;;
22711;SDS011;11523;50.390;8.072;2023-06-10T05:36:21;13.15;;;11.85;;
22711;SDS011;11523;50.390;8.072;2023-06-10T05:38:47;13.48;;;12.18;;
22711;SDS011;11523;50.390;8.072;2023-06-10T05:41:13;15.85;;;12.73;;
22711;SDS011;11523;50.390;8.072;2023-06-10T05:43:39;14.00;;;12.18;;
22711;SDS011;11523;50.390;8.072;2023-06-10T05:46:05;14.80;;;12.10;;
22711;SDS011;11523;50.390;8.072;2023-06-10T05:48:31;13.57;;;12.18;;
22711;SDS011;11523;50.390;8.072;2023-06-10T05:50:57;13.63;;;11.35;;
22711;SDS011;11523;50.390;8.072;2023-06-10T05:53:23;14.18;;;12.43;;
22711;SDS011;11523;50.390;8.072;2023-06-10T05:55:49;16.92;;;11.65;;
22711;SDS011;11523;50.390;8.072;2023-06-10T05:58:15;13.35;;;11.80;;
22711;SDS011;11523;50.390;8.072;2023-06-10T06:00:41;17.15;;;11.88;;
22711;SDS011;11523;50.390;8.072;2023-06-10T06:03:07;15.02;;;11.32;;
22711;SDS011;11523;50.390;8.072;2023-06-10T06:05:33;14.90;;;11.75;;
22711;SDS011;11523;50.390;8.072;2023-06-10T06:08:03;12.02;;;10.80;;
22711;SDS011;11523;50.390;8.072;2023-06-10T06:10:29;14.93;;;11.80;;
22711;SDS011;11523;50.390;8.072;2023-06-10T06:12:55;13.20;;;11.25;;
22711;SDS011;11523;50.390;8.072;2023-06-10T06:15:22;15.60;;;11.32;;
22711;SDS011;11523;50.390;8.072;2023-06-10T06:17:48;13.85;;;10.80;;
22711;SDS011;11523;50.390;8.072;2023-06-10T06:20:17;12.55;;;10.95;;
22711;SDS011;11523;50.390;8.072;2023-06-10T06:22:43;16.20;;;10.95;;
22711;SDS011;11523;50.390;8.072;2023-06-10T06:25:09;14.75;;;11.50;;
22711;SDS011;11523;50.390;8.072;2023-06-10T06:27:35;11.43;;;10.27;;
22711;SDS011;11523;50.390;8.072;2023-06-10T06:30:01;13.68;;;10.68;;
22711;SDS011;11523;50.390;8.072;2023-06-10T06:32:27;12.07;;;10.88;;
22711;SDS011;11523;50.390;8.072;2023-06-10T06:34:53;11.73;;;9.70;;
22711;SDS011;11523;50.390;8.072;2023-06-10T06:37:22;14.10;;;9.02;;
22711;SDS011;11523;50.390;8.072;2023-06-10T06:39:49;12.13;;;8.82;;
22711;SDS011;11523;50.390;8.072;2023-06-10T06:42:15;10.55;;;8.85;;
22711;SDS011;11523;50.390;8.072;2023-06-10T06:44:41;10.68;;;8.88;;
22711;SDS011;11523;50.390;8.072;2023-06-10T06:47:07;12.93;;;8.43;;
22711;SDS011;11523;50.390;8.072;2023-06-10T06:49:33;11.23;;;8.30;;
22711;SDS011;11523;50.390;8.072;2023-06-10T06:51:59;9.52;;;8.05;;
22711;SDS011;11523;50.390;8.072;2023-06-10T06:54:25;9.90;;;9.00;;
22711;SDS011;11523;50.390;8.072;2023-06-10T06:56:51;8.82;;;7.93;;
22711;SDS011;11523;50.390;8.072;2023-06-10T06:59:17;13.05;;;8.05;;
22711;SDS011;11523;50.390;8.072;2023-06-10T07:01:44;13.90;;;8.38;;
22711;SDS011;11523;50.390;8.072;2023-06-10T07:04:10;11.50;;;8.23;;
22711;SDS011;11523;50.390;8.072;2023-06-10T07:06:36;11.30;;;7.60;;
22711;SDS011;11523;50.390;8.072;2023-06-10T07:09:03;8.43;;;7.00;;
22711;SDS011;11523;50.390;8.072;2023-06-10T07:11:29;10.50;;;7.45;;
22711;SDS011;11523;50.390;8.072;2023-06-10T07:13:55;9.45;;;6.93;;
22711;SDS011;11523;50.390;8.072;2023-06-10T07:16:21;7.47;;;6.88;;
22711;SDS011;11523;50.390;8.072;2023-06-10T07:18:47;8.43;;;6.45;;
22711;SDS011;11523;50.390;8.072;2023-06-10T07:21:13;7.88;;;7.03;;
22711;SDS011;11523;50.390;8.072;2023-06-10T07:23:42;8.70;;;7.10;;
22711;SDS011;11523;50.390;8.072;2023-06-10T07:26:09;8.95;;;6.82;;
22711;SDS011;11523;50.390;8.072;2023-06-10T07:28:36;7.60;;;6.85;;
22711;SDS011;11523;50.390;8.072;2023-06-10T07:31:02;9.10;;;7.05;;
22711;SDS011;11523;50.390;8.072;2023-06-10T07:33:28;8.13;;;7.03;;
22711;SDS011;11523;50.390;8.072;2023-06-10T07:35:54;9.23;;;7.13;;
22711;SDS011;11523;50.390;8.072;2023-06-10T07:38:20;8.63;;;7.72;;
22711;SDS011;11523;50.390;8.072;2023-06-10T07:40:46;8.07;;;7.30;;
22711;SDS011;11523;50.390;8.072;2023-06-10T07:43:12;9.05;;;6.95;;
22711;SDS011;11523;50.390;8.072;2023-06-10T07:45:41;7.55;;;6.85;;
22711;SDS011;11523;50.390;8.072;2023-06-10T07:48:07;10.23;;;7.28;;
22711;SDS011;11523;50.390;8.072;2023-06-10T07:50:34;8.52;;;6.90;;
22711;SDS011;11523;50.390;8.072;2023-06-10T07:53:00;7.63;;;6.47;;
22711;SDS011;11523;50.390;8.072;2023-06-10T07:55:26;9.30;;;6.68;;
22711;SDS011;11523;50.390;8.072;2023-06-10T07:57:52;8.90;;;7.43;;
22711;SDS011;11523;50.390;8.072;2023-06-10T08:00:19;9.30;;;7.38;;
22711;SDS011;11523;50.390;8.072;2023-06-10T08:02:45;7.55;;;6.85;;
22711;SDS011;11523;50.390;8.072;2023-06-10T08:05:11;10.30;;;7.03;;
22711;SDS011;11523;50.390;8.072;2023-06-10T08:07:37;7.63;;;6.93;;
22711;SDS011;11523;50.390;8.072;2023-06-10T08:10:03;8.55;;;7.45;;
22711;SDS011;11523;50.390;8.072;2023-06-10T08:12:29;9.45;;;7.68;;
22711;SDS011;11523;50.390;8.072;2023-06-10T08:14:55;10.30;;;7.53;;
22711;SDS011;11523;50.390;8.072;2023-06-10T08:17:21;10.52;;;6.95;;
22711;SDS011;11523;50.390;8.072;2023-06-10T08:19:47;10.52;;;7.50;;
22711;SDS011;11523;50.390;8.072;2023-06-10T08:22:13;9.10;;;7.53;;
22711;SDS011;11523;50.390;8.072;2023-06-10T08:24:39;10.13;;;6.72;;
22711;SDS011;11523;50.390;8.072;2023-06-10T08:27:05;9.98;;;7.20;;
22711;SDS011;11523;50.390;8.072;2023-06-10T08:29:31;7.57;;;6.88;;
22711;SDS011;11523;50.390;8.072;2023-06-10T08:31:57;7.97;;;7.18;;
22711;SDS011;11523;50.390;8.072;2023-06-10T08:34:24;9.73;;;7.60;;
22711;SDS011;11523;50.390;8.072;2023-06-10T08:36:50;9.75;;;7.00;;
22711;SDS011;11523;50.390;8.072;2023-06-10T08:39:20;9.38;;;7.63;;
22711;SDS011;11523;50.390;8.072;2023-06-10T08:42:33;8.18;;;7.38;;
22711;SDS011;11523;50.390;8.072;2023-06-10T08:44:35;8.27;;;7.35;;
22711;SDS011;11523;50.390;8.072;2023-06-10T08:47:11;12.85;;;7.65;;
22711;SDS011;11523;50.390;8.072;2023-06-10T08:49:41;10.35;;;8.15;;
22711;SDS011;11523;50.390;8.072;2023-06-10T08:52:08;8.27;;;7.32;;
22711;SDS011;11523;50.390;8.072;2023-06-10T08:54:36;13.30;;;7.47;;
22711;SDS011;11523;50.390;8.072;2023-06-10T08:57:05;9.40;;;6.90;;
22711;SDS011;11523;50.390;8.072;2023-06-10T08:59:31;8.70;;;7.65;;
22711;SDS011;11523;50.390;8.072;2023-06-10T09:01:57;9.90;;;7.03;;
22711;SDS011;11523;50.390;8.072;2023-06-10T09:04:24;8.05;;;7.22;;
22711;SDS011;11523;50.390;8.072;2023-06-10T09:06:50;10.52;;;7.47;;
22711;SDS011;11523;50.390;8.072;2023-06-10T09:09:16;11.07;;;7.05;;
22711;SDS011;11523;50.390;8.072;2023-06-10T09:11:44;12.82;;;7.55;;
22711;SDS011;11523;50.390;8.072;2023-06-10T09:14:10;10.32;;;7.88;;
22711;SDS011;11523;50.390;8.072;2023-06-10T09:16:39;11.25;;;6.88;;
22711;SDS011;11523;50.390;8.072;2023-06-10T09:19:12;7.30;;;6.60;;
22711;SDS011;11523;50.390;8.072;2023-06-10T09:21:39;13.33;;;7.03;;
22711;SDS011;11523;50.390;8.072;2023-06-10T09:24:05;8.48;;;7.57;;
22711;SDS011;11523;50.390;8.072;2023-06-10T09:26:31;8.88;;;6.72;;
22711;SDS011;11523;50.390;8.072;2023-06-10T09:29:02;8.18;;;7.15;;
22711;SDS011;11523;50.390;8.072;2023-06-10T09:31:29;9.75;;;6.82;;
22711;SDS011;11523;50.390;8.072;2023-06-10T09:34:04;7.63;;;6.82;;
22711;SDS011;11523;50.390;8.072;2023-06-10T09:36:30;9.82;;;6.75;;
22711;SDS011;11523;50.390;8.072;2023-06-10T09:38:56;6.97;;;6.28;;
22711;SDS011;11523;50.390;8.072;2023-06-10T09:41:25;8.52;;;6.22;;
22711;SDS011;11523;50.390;8.072;2023-06-10T09:43:57;7.53;;;6.82;;
22711;SDS011;11523;50.390;8.072;2023-06-10T09:46:23;7.25;;;6.55;;
22711;SDS011;11523;50.390;8.072;2023-06-10T09:48:49;7.45;;;6.18;;
22711;SDS011;11523;50.390;8.072;2023-06-10T09:51:21;9.50;;;6.20;;
22711;SDS011;11523;50.390;8.072;2023-06-10T09:53:51;9.15;;;6.50;;
22711;SDS011;11523;50.390;8.072;2023-06-10T09:56:17;10.32;;;6.57;;
22711;SDS011;11523;50.390;8.072;2023-06-10T09:58:44;7.38;;;6.03;;
22711;SDS011;11523;50.390;8.072;2023-06-10T10:01:11;7.85;;;6.30;;
22711;SDS011;11523;50.390;8.072;2023-06-10T10:03:44;7.93;;;6.03;;
22711;SDS011;11523;50.390;8.072;2023-06-10T10:06:14;8.38;;;6.40;;
22711;SDS011;11523;50.390;8.072;2023-06-10T10:08:40;8.95;;;6.30;;
22711;SDS011;11523;50.390;8.072;2023-06-10T10:11:06;8.38;;;6.53;;
22711;SDS011;11523;50.390;8.072;2023-06-10T10:13:33;8.85;;;6.72;;
22711;SDS011;11523;50.390;8.072;2023-06-10T10:16:01;10.63;;;6.63;;
22711;SDS011;11523;50.390;8.072;2023-06-10T10:18:29;10.02;;;6.22;;
22711;SDS011;11523;50.390;8.072;2023-06-10T10:20:55;10.52;;;6.32;;
22711;SDS011;11523;50.390;8.072;2023-06-10T10:23:33;7.88;;;6.15;;
22711;SDS011;11523;50.390;8.072;2023-06-10T10:26:00;6.60;;;6.00;;
22711;SDS011;11523;50.390;8.072;2023-06-10T10:28:34;12.32;;;6.53;;
22711;SDS011;11523;50.390;8.072;2023-06-10T10:31:05;6.20;;;5.60;;
22711;SDS011;11523;50.390;8.072;2023-06-10T10:33:48;8.77;;;5.72;;
22711;SDS011;11523;50.390;8.072;2023-06-10T10:36:14;8.32;;;5.97;;
22711;SDS011;11523;50.390;8.072;2023-06-10T10:38:41;14.65;;;5.97;;
22711;SDS011;11523;50.390;8.072;2023-06-10T10:41:07;10.93;;;6.20;;
22711;SDS011;11523;50.390;8.072;2023-06-10T10:43:33;9.88;;;5.57;;
22711;SDS011;11523;50.390;8.072;2023-06-10T10:46:08;10.98;;;5.95;;
22711;SDS011;11523;50.390;8.072;2023-06-10T10:48:35;12.38;;;6.15;;
22711;SDS011;11523;50.390;8.072;2023-06-10T10:51:02;6.63;;;6.03;;
22711;SDS011;11523;50.390;8.072;2023-06-10T10:53:29;7.65;;;5.70;;
22711;SDS011;11523;50.390;8.072;2023-06-10T10:56:15;7.07;;;5.07;;
22711;SDS011;11523;50.390;8.072;2023-06-10T10:58:43;8.88;;;5.00;;
22711;SDS011;11523;50.390;8.072;2023-06-10T11:01:28;7.88;;;5.43;;
22711;SDS011;11523;50.390;8.072;2023-06-10T11:04:06;5.82;;;5.28;;
22711;SDS011;11523;50.390;8.072;2023-06-10T11:06:38;6.47;;;5.00;;
22711;SDS011;11523;50.390;8.072;2023-06-10T11:09:25;6.85;;;5.32;;
22711;SDS011;11523;50.390;8.072;2023-06-10T11:11:52;6.00;;;5.40;;
22711;SDS011;11523;50.390;8.072;2023-06-10T11:14:28;6.88;;;5.28;;
22711;SDS011;11523;50.390;8.072;2023-06-10T11:16:56;7.05;;;5.68;;
22711;SDS011;11523;50.390;8.072;2023-06-10T11:19:32;5.95;;;4.93;;
22711;SDS011;11523;50.390;8.072;2023-06-10T11:22:00;8.82;;;5.45;;
22711;SDS011;11523;50.390;8.072;2023-06-10T11:24:26;7.97;;;5.43;;
22711;SDS011;11523;50.390;8.072;2023-06-10T11:26:52;7.68;;;5.45;;
22711;SDS011;11523;50.390;8.072;2023-06-10T11:29:18;9.90;;;5.57;;
22711;SDS011;11523;50.390;8.072;2023-06-10T11:31:46;12.32;;;6.25;;
22711;SDS011;11523;50.390;8.072;2023-06-10T11:34:15;7.72;;;5.68;;
22711;SDS011;11523;50.390;8.072;2023-06-10T11:36:41;6.05;;;5.47;;
22711;SDS011;11523;50.390;8.072;2023-06-10T11:39:09;5.57;;;5.07;;
22711;SDS011;11523;50.390;8.072;2023-06-10T11:41:36;7.38;;;5.95;;
22711;SDS011;11523;50.390;8.072;2023-06-10T11:44:03;11.05;;;5.50;;
22711;SDS011;11523;50.390;8.072;2023-06-10T11:46:29;8.93;;;5.45;;
22711;SDS011;11523;50.390;8.072;2023-06-10T11:48:56;6.32;;;5.32;;
22711;SDS011;11523;50.390;8.072;2023-06-10T11:51:26;6.82;;;5.82;;
22711;SDS011;11523;50.390;8.072;2023-06-10T11:53:53;6.55;;;5.15;;
22711;SDS011;11523;50.390;8.072;2023-06-10T11:56:26;5.85;;;5.25;;
22711;SDS011;11523;50.390;8.072;2023-06-10T11:58:53;5.93;;;5.30;;
22711;SDS011;11523;50.390;8.072;2023-06-10T12:01:20;8.63;;;5.20;;
22711;SDS011;11523;50.390;8.072;2023-06-10T12:03:56;7.45;;;5.40;;
22711;SDS011;11523;50.390;8.072;2023-06-10T12:06:22;6.07;;;5.43;;
22711;SDS011;11523;50.390;8.072;2023-06-10T12:08:48;6.35;;;5.15;;
22711;SDS011;11523;50.390;8.072;2023-06-10T12:11:14;5.55;;;4.90;;
22711;SDS011;11523;50.390;8.072;2023-06-10T12:13:47;9.35;;;5.05;;
22711;SDS011;11523;50.390;8.072;2023-06-10T12:16:13;5.78;;;5.18;;
22711;SDS011;11523;50.390;8.072;2023-06-10T12:18:39;5.63;;;4.97;;
22711;SDS011;11523;50.390;8.072;2023-06-10T12:21:15;5.97;;;4.57;;
22711;SDS011;11523;50.390;8.072;2023-06-10T12:23:59;6.68;;;4.03;;
22711;SDS011;11523;50.390;8.072;2023-06-10T12:26:33;11.25;;;4.30;;
22711;SDS011;11523;50.390;8.072;2023-06-10T12:28:59;5.25;;;4.43;;
22711;SDS011;11523;50.390;8.072;2023-06-10T12:31:25;4.40;;;4.00;;
22711;SDS011;11523;50.390;8.072;2023-06-10T12:34:04;5.07;;;4.53;;
22711;SDS011;11523;50.390;8.072;2023-06-10T12:36:33;5.95;;;4.50;;
22711;SDS011;11523;50.390;8.072;2023-06-10T12:39:03;7.95;;;4.43;;
22711;SDS011;11523;50.390;8.072;2023-06-10T12:41:29;4.68;;;4.22;;
22711;SDS011;11523;50.390;8.072;2023-06-10T12:43:57;4.95;;;4.40;;
22711;SDS011;11523;50.390;8.072;2023-06-10T12:46:23;5.60;;;4.35;;
22711;SDS011;11523;50.390;8.072;2023-06-10T12:48:49;5.38;;;4.30;;
22711;SDS011;11523;50.390;8.072;2023-06-10T12:51:27;4.25;;;3.95;;
22711;SDS011;11523;50.390;8.072;2023-06-10T12:54:03;5.97;;;4.45;;
22711;SDS011;11523;50.390;8.072;2023-06-10T12:56:32;5.13;;;4.32;;
22711;SDS011;11523;50.390;8.072;2023-06-10T12:58:58;4.75;;;4.35;;
22711;SDS011;11523;50.390;8.072;2023-06-10T13:01:24;4.75;;;4.25;;
22711;SDS011;11523;50.390;8.072;2023-06-10T13:03:50;6.05;;;4.47;;
22711;SDS011;11523;50.390;8.072;2023-06-10T13:06:16;5.63;;;4.22;;
22711;SDS011;11523;50.390;8.072;2023-06-10T13:08:42;4.85;;;4.10;;
22711;SDS011;11523;50.390;8.072;2023-06-10T13:11:08;6.60;;;4.00;;
22711;SDS011;11523;50.390;8.072;2023-06-10T13:13:36;6.75;;;4.40;;
22711;SDS011;11523;50.390;8.072;2023-06-10T13:16:02;7.53;;;4.60;;
22711;SDS011;11523;50.390;8.072;2023-06-10T13:18:28;5.28;;;4.70;;
22711;SDS011;11523;50.390;8.072;2023-06-10T13:20:54;5.93;;;4.43;;
22711;SDS011;11523;50.390;8.072;2023-06-10T13:23:20;5.85;;;4.28;;
22711;SDS011;11523;50.390;8.072;2023-06-10T13:25:47;5.22;;;4.00;;
22711;SDS011;11523;50.390;8.072;2023-06-10T13:28:13;5.35;;;4.30;;
22711;SDS011;11523;50.390;8.072;2023-06-10T13:30:39;7.60;;;4.35;;
22711;SDS011;11523;50.390;8.072;2023-06-10T13:33:05;7.68;;;4.40;;
22711;SDS011;11523;50.390;8.072;2023-06-10T13:35:31;6.18;;;4.47;;
22711;SDS011;11523;50.390;8.072;2023-06-10T13:37:57;5.88;;;4.63;;
22711;SDS011;11523;50.390;8.072;2023-06-10T13:40:23;5.75;;;4.32;;
22711;SDS011;11523;50.390;8.072;2023-06-10T13:42:49;5.10;;;4.18;;
22711;SDS011;11523;50.390;8.072;2023-06-10T13:45:17;8.65;;;4.88;;
22711;SDS011;11523;50.390;8.072;2023-06-10T13:47:43;5.95;;;4.15;;
22711;SDS011;11523;50.390;8.072;2023-06-10T13:50:09;4.78;;;4.22;;
22711;SDS011;11523;50.390;8.072;2023-06-10T13:52:35;7.82;;;4.53;;
22711;SDS011;11523;50.390;8.072;2023-06-10T13:55:01;5.93;;;4.25;;
22711;SDS011;11523;50.390;8.072;2023-06-10T13:57:27;7.38;;;4.40;;
22711;SDS011;11523;50.390;8.072;2023-06-10T13:59:53;4.82;;;3.90;;
22711;SDS011;11523;50.390;8.072;2023-06-10T14:02:21;4.25;;;3.85;;
22711;SDS011;11523;50.390;8.072;2023-06-10T14:04:46;4.75;;;4.30;;
22711;SDS011;11523;50.390;8.072;2023-06-10T14:07:12;6.85;;;4.75;;
22711;SDS011;11523;50.390;8.072;2023-06-10T14:09:38;4.82;;;4.35;;
22711;SDS011;11523;50.390;8.072;2023-06-10T14:12:04;5.93;;;3.80;;
22711;SDS011;11523;50.390;8.072;2023-06-10T14:14:30;5.47;;;4.45;;
22711;SDS011;11523;50.390;8.072;2023-06-10T14:16:58;4.95;;;4.10;;
22711;SDS011;11523;50.390;8.072;2023-06-10T14:19:24;5.03;;;4.50;;
22711;SDS011;11523;50.390;8.072;2023-06-10T14:21:49;4.60;;;4.07;;
22711;SDS011;11523;50.390;8.072;2023-06-10T14:24:15;4.82;;;4.05;;
22711;SDS011;11523;50.390;8.072;2023-06-10T14:26:41;5.15;;;4.40;;
22711;SDS011;11523;50.390;8.072;2023-06-10T14:29:07;6.47;;;4.38;;
22711;SDS011;11523;50.390;8.072;2023-06-10T14:31:33;4.78;;;4.30;;
22711;SDS011;11523;50.390;8.072;2023-06-10T14:33:59;5.00;;;4.35;;
22711;SDS011;11523;50.390;8.072;2023-06-10T14:36:25;5.43;;;4.38;;
22711;SDS011;11523;50.390;8.072;2023-06-10T14:38:51;5.10;;;4.40;;
22711;SDS011;11523;50.390;8.072;2023-06-10T14:41:18;5.63;;;4.22;;
22711;SDS011;11523;50.390;8.072;2023-06-10T14:43:44;4.47;;;4.07;;
22711;SDS011;11523;50.390;8.072;2023-06-10T14:46:10;4.70;;;4.10;;
22711;SDS011;11523;50.390;8.072;2023-06-10T14:48:36;7.68;;;4.40;;
22711;SDS011;11523;50.390;8.072;2023-06-10T14:51:02;5.38;;;4.47;;
22711;SDS011;11523;50.390;8.072;2023-06-10T14:53:28;4.53;;;4.18;;
22711;SDS011;11523;50.390;8.072;2023-06-10T14:55:54;5.25;;;4.38;;
22711;SDS011;11523;50.390;8.072;2023-06-10T14:58:20;4.55;;;4.07;;
22711;SDS011;11523;50.390;8.072;2023-06-10T15:00:46;5.32;;;4.25;;
22711;SDS011;11523;50.390;8.072;2023-06-10T15:03:12;4.60;;;4.18;;
22711;SDS011;11523;50.390;8.072;2023-06-10T15:05:38;8.02;;;4.30;;
22711;SDS011;11523;50.390;8.072;2023-06-10T15:08:04;4.75;;;4.25;;
22711;SDS011;11523;50.390;8.072;2023-06-10T15:10:30;4.75;;;4.15;;
22711;SDS011;11523;50.390;8.072;2023-06-10T15:12:56;5.13;;;4.63;;
22711;SDS011;11523;50.390;8.072;2023-06-10T15:15:23;5.47;;;4.93;;
22711;SDS011;11523;50.390;8.072;2023-06-10T15:17:50;4.82;;;4.32;;
22711;SDS011;11523;50.390;8.072;2023-06-10T15:20:16;4.80;;;4.30;;
22711;SDS011;11523;50.390;8.072;2023-06-10T15:22:42;5.03;;;4.00;;
22711;SDS011;11523;50.390;8.072;2023-06-10T15:25:08;5.03;;;4.20;;
22711;SDS011;11523;50.390;8.072;2023-06-10T15:27:34;6.20;;;4.25;;
22711;SDS011;11523;50.390;8.072;2023-06-10T15:30:00;4.72;;;4.32;;
22711;SDS011;11523;50.390;8.072;2023-06-10T15:32:26;4.43;;;4.00;;
22711;SDS011;11523;50.390;8.072;2023-06-10T15:34:52;5.10;;;4.60;;
22711;SDS011;11523;50.390;8.072;2023-06-10T15:37:18;4.78;;;4.38;;
22711;SDS011;11523;50.390;8.072;2023-06-10T15:39:45;4.50;;;4.03;;
22711;SDS011;11523;50.390;8.072;2023-06-10T15:42:11;5.30;;;4.07;;
22711;SDS011;11523;50.390;8.072;2023-06-10T15:44:37;4.90;;;4.40;;
22711;SDS011;11523;50.390;8.072;2023-06-10T15:47:03;5.53;;;4.38;;
22711;SDS011;11523;50.390;8.072;2023-06-10T15:49:29;4.55;;;4.15;;
22711;SDS011;11523;50.390;8.072;2023-06-10T15:51:55;7.63;;;4.25;;
22711;SDS011;11523;50.390;8.072;2023-06-10T15:54:22;6.00;;;4.75;;
22711;SDS011;11523;50.390;8.072;2023-06-10T15:56:48;5.00;;;4.53;;
22711;SDS011;11523;50.390;8.072;2023-06-10T15:59:14;7.93;;;4.50;;
22711;SDS011;11523;50.390;8.072;2023-06-10T16:01:40;5.28;;;4.20;;
22711;SDS011;11523;50.390;8.072;2023-06-10T16:04:05;6.85;;;3.97;;
22711;SDS011;11523;50.390;8.072;2023-06-10T16:06:31;6.40;;;4.15;;
22711;SDS011;11523;50.390;8.072;2023-06-10T16:08:59;4.75;;;4.32;;
22711;SDS011;11523;50.390;8.072;2023-06-10T16:11:25;5.13;;;3.85;;
22711;SDS011;11523;50.390;8.072;2023-06-10T16:13:52;4.65;;;4.25;;
22711;SDS011;11523;50.390;8.072;2023-06-10T16:16:18;5.05;;;4.07;;
22711;SDS011;11523;50.390;8.072;2023-06-10T16:18:44;4.88;;;4.40;;
22711;SDS011;11523;50.390;8.072;2023-06-10T16:21:10;5.25;;;4.38;;
22711;SDS011;11523;50.390;8.072;2023-06-10T16:23:36;8.80;;;4.50;;
22711;SDS011;11523;50.390;8.072;2023-06-10T16:26:03;4.32;;;3.97;;
22711;SDS011;11523;50.390;8.072;2023-06-10T16:28:29;7.25;;;4.03;;
22711;SDS011;11523;50.390;8.072;2023-06-10T16:30:55;7.20;;;4.35;;
22711;SDS011;11523;50.390;8.072;2023-06-10T16:33:21;4.35;;;3.92;;
22711;SDS011;11523;50.390;8.072;2023-06-10T16:35:47;4.68;;;4.00;;
22711;SDS011;11523;50.390;8.072;2023-06-10T16:38:13;7.88;;;4.07;;
22711;SDS011;11523;50.390;8.072;2023-06-10T16:40:39;5.80;;;4.18;;
22711;SDS011;11523;50.390;8.072;2023-06-10T16:43:06;4.60;;;4.13;;
22711;SDS011;11523;50.390;8.072;2023-06-10T16:45:31;5.28;;;4.40;;
22711;SDS011;11523;50.390;8.072;2023-06-10T16:47:57;4.38;;;3.95;;
22711;SDS011;11523;50.390;8.072;2023-06-10T16:50:23;5.15;;;4.35;;
22711;SDS011;11523;50.390;8.072;2023-06-10T16:52:49;4.47;;;4.07;;
22711;SDS011;11523;50.390;8.072;2023-06-10T16:55:15;5.72;;;3.78;;
22711;SDS011;11523;50.390;8.072;2023-06-10T16:57:41;4.22;;;3.92;;
22711;SDS011;11523;50.390;8.072;2023-06-10T17:00:07;5.82;;;4.00;;
22711;SDS011;11523;50.390;8.072;2023-06-10T17:02:33;4.65;;;4.13;;
22711;SDS011;11523;50.390;8.072;2023-06-10T17:05:06;4.50;;;4.10;;
22711;SDS011;11523;50.390;8.072;2023-06-10T17:07:32;5.20;;;4.13;;
22711;SDS011;11523;50.390;8.072;2023-06-10T17:09:58;4.63;;;4.22;;
22711;SDS011;11523;50.390;8.072;2023-06-10T17:12:25;6.45;;;4.35;;
22711;SDS011;11523;50.390;8.072;2023-06-10T17:14:51;5.15;;;4.40;;
22711;SDS011;11523;50.390;8.072;2023-06-10T17:17:17;4.50;;;4.10;;
22711;SDS011;11523;50.390;8.072;2023-06-10T17:19:43;4.53;;;4.13;;
22711;SDS011;11523;50.390;8.072;2023-06-10T17:22:08;4.85;;;3.70;;
22711;SDS011;11523;50.390;8.072;2023-06-10T17:24:34;7.65;;;4.28;;
22711;SDS011;11523;50.390;8.072;2023-06-10T17:27:00;6.50;;;4.03;;
22711;SDS011;11523;50.390;8.072;2023-06-10T17:29:26;6.03;;;4.50;;
22711;SDS011;11523;50.390;8.072;2023-06-10T17:31:52;5.93;;;4.72;;
22711;SDS011;11523;50.390;8.072;2023-06-10T17:34:18;5.75;;;4.65;;
22711;SDS011;11523;50.390;8.072;2023-06-10T17:36:44;5.38;;;4.63;;
22711;SDS011;11523;50.390;8.072;2023-06-10T17:39:11;4.85;;;4.32;;
22711;SDS011;11523;50.390;8.072;2023-06-10T17:41:37;6.85;;;4.65;;
22711;SDS011;11523;50.390;8.072;2023-06-10T17:44:09;4.97;;;4.43;;
22711;SDS011;11523;50.390;8.072;2023-06-10T17:46:35;5.03;;;4.22;;
22711;SDS011;11523;50.390;8.072;2023-06-10T17:49:01;5.20;;;4.70;;
22711;SDS011;11523;50.390;8.072;2023-06-10T17:51:27;6.35;;;4.72;;
22711;SDS011;11523;50.390;8.072;2023-06-10T17:53:53;6.05;;;4.90;;
22711;SDS011;11523;50.390;8.072;2023-06-10T17:56:19;5.40;;;4.55;;
22711;SDS011;11523;50.390;8.072;2023-06-10T17:58:45;5.10;;;4.70;;
22711;SDS011;11523;50.390;8.072;2023-06-10T18:01:11;5.78;;;5.03;;
22711;SDS011;11523;50.390;8.072;2023-06-10T18:03:37;5.72;;;4.53;;
22711;SDS011;11523;50.390;8.072;2023-06-10T18:06:03;5.50;;;5.00;;
22711;SDS011;11523;50.390;8.072;2023-06-10T18:08:29;5.55;;;4.55;;
22711;SDS011;11523;50.390;8.072;2023-06-10T18:10:56;4.85;;;4.45;;
22711;SDS011;11523;50.390;8.072;2023-06-10T18:13:22;6.43;;;4.93;;
22711;SDS011;11523;50.390;8.072;2023-06-10T18:15:48;7.53;;;5.22;;
22711;SDS011;11523;50.390;8.072;2023-06-10T18:18:13;6.65;;;4.90;;
22711;SDS011;11523;50.390;8.072;2023-06-10T18:20:39;6.72;;;5.13;;
22711;SDS011;11523;50.390;8.072;2023-06-10T18:23:05;6.57;;;5.45;;
22711;SDS011;11523;50.390;8.072;2023-06-10T18:25:31;6.00;;;5.43;;
22711;SDS011;11523;50.390;8.072;2023-06-10T18:27:57;6.25;;;5.65;;
22711;SDS011;11523;50.390;8.072;2023-06-10T18:30:23;7.63;;;6.03;;